createdAt,value
2022-09-07T00:01:24.126Z,5.50
2022-09-07T00:03:56.670Z,5.50
2022-09-07T00:06:26.273Z,4.90
2022-09-07T00:08:54.770Z,5.73
2022-09-07T00:11:23.657Z,6.30
2022-09-07T00:13:52.226Z,6.00
2022-09-07T00:16:23.799Z,4.70
2022-09-07T00:18:56.238Z,4.90
2022-09-07T00:21:25.319Z,5.17
2022-09-07T00:23:54.779Z,5.87
2022-09-07T00:26:27.418Z,5.30
2022-09-07T00:28:59.406Z,5.30
2022-09-07T00:31:31.362Z,5.63
2022-09-07T00:34:03.002Z,5.10
2022-09-07T00:36:31.857Z,5.37
2022-09-07T00:39:00.564Z,5.63
2022-09-07T00:41:29.102Z,4.80
2022-09-07T00:44:00.574Z,4.63
2022-09-07T00:46:31.982Z,5.13
2022-09-07T00:49:09.487Z,5.20
2022-09-07T00:51:45.217Z,6.40
2022-09-07T00:54:19.231Z,5.43
2022-09-07T00:56:50.759Z,5.53
2022-09-07T00:59:23.858Z,4.50
2022-09-07T01:01:53.062Z,5.27
2022-09-07T01:04:23.976Z,5.27
2022-09-07T01:06:52.871Z,5.67
2022-09-07T01:09:24.061Z,5.80
2022-09-07T01:11:55.046Z,6.80
2022-09-07T01:14:28.041Z,4.80
2022-09-07T01:17:05.044Z,5.27
2022-09-07T01:20:18.109Z,5.20
2022-09-07T01:23:23.785Z,5.63
2022-09-07T01:26:17.835Z,5.03
2022-09-07T01:28:52.980Z,5.03
2022-09-07T01:31:28.913Z,5.60
2022-09-07T01:34:07.573Z,6.73
2022-09-07T01:36:47.994Z,6.00
2022-09-07T01:39:17.716Z,5.20
2022-09-07T01:41:54.211Z,5.50
2022-09-07T01:44:28.528Z,4.43
2022-09-07T01:47:04.032Z,5.80
2022-09-07T01:49:43.359Z,4.73
2022-09-07T01:52:18.347Z,4.90
2022-09-07T01:54:50.169Z,5.87
2022-09-07T01:57:27.800Z,5.70
2022-09-07T02:00:06.343Z,5.30
2022-09-07T02:02:46.530Z,5.17
2022-09-07T02:05:20.367Z,4.70
2022-09-07T02:07:55.250Z,4.57
2022-09-07T02:10:29.914Z,5.10
2022-09-07T02:13:03.245Z,4.03
2022-09-07T02:15:42.918Z,3.67
2022-09-07T02:18:14.266Z,4.63
2022-09-07T02:20:49.549Z,5.13
2022-09-07T02:23:23.182Z,5.13
2022-09-07T02:25:55.406Z,4.43
2022-09-07T02:28:29.627Z,4.90
2022-09-07T02:31:00.228Z,5.57
2022-09-07T02:33:29.384Z,5.73
2022-09-07T02:35:58.662Z,5.40
2022-09-07T02:38:27.650Z,6.27
2022-09-07T02:40:58.992Z,6.70
2022-09-07T02:43:28.696Z,6.10
2022-09-07T02:46:20.363Z,5.17
2022-09-07T02:49:03.315Z,5.27
2022-09-07T02:51:42.858Z,5.20
2022-09-07T02:54:27.371Z,4.83
2022-09-07T02:57:07.270Z,5.00
2022-09-07T03:00:01.309Z,4.90
2022-09-07T03:02:41.555Z,4.37
2022-09-07T03:05:18.387Z,4.13
2022-09-07T03:07:54.150Z,4.33
2022-09-07T03:10:23.474Z,4.60
2022-09-07T03:12:52.624Z,4.33
2022-09-07T03:15:24.504Z,4.90
2022-09-07T03:17:55.071Z,4.43
2022-09-07T03:20:24.645Z,5.10
2022-09-07T03:22:54.019Z,5.27
2022-09-07T03:25:22.866Z,5.63
2022-09-07T03:27:51.391Z,5.00
2022-09-07T03:30:20.334Z,5.70
2022-09-07T03:32:48.921Z,6.17
2022-09-07T03:35:19.393Z,5.13
2022-09-07T03:37:47.898Z,6.00
2022-09-07T03:40:17.506Z,5.90
2022-09-07T03:42:50.947Z,5.77
2022-09-07T03:45:19.727Z,5.70
2022-09-07T03:47:49.232Z,5.70
2022-09-07T03:50:19.333Z,6.03
2022-09-07T03:52:47.908Z,5.77
2022-09-07T03:55:16.587Z,5.87
2022-09-07T03:57:45.152Z,5.70
2022-09-07T04:00:16.201Z,5.13
2022-09-07T04:02:44.832Z,6.50
2022-09-07T04:05:13.482Z,6.30
2022-09-07T04:07:43.383Z,7.20
2022-09-07T04:10:12.131Z,6.50
2022-09-07T04:12:40.670Z,6.27
2022-09-07T04:15:10.671Z,7.37
2022-09-07T04:17:39.711Z,6.87
2022-09-07T04:20:10.180Z,5.73
2022-09-07T04:22:38.891Z,5.67
2022-09-07T04:25:09.762Z,6.13
2022-09-07T04:27:38.419Z,6.20
2022-09-07T04:30:08.420Z,6.70
2022-09-07T04:32:37.130Z,6.77
2022-09-07T04:35:06.806Z,5.83
2022-09-07T04:37:35.432Z,6.50
2022-09-07T04:40:04.786Z,6.80
2022-09-07T04:42:34.934Z,6.03
2022-09-07T04:45:03.708Z,7.00
2022-09-07T04:47:32.925Z,7.60
2022-09-07T04:50:01.621Z,7.17
2022-09-07T04:52:30.271Z,7.00
2022-09-07T04:54:58.908Z,6.97
2022-09-07T04:57:27.624Z,7.40
2022-09-07T04:59:57.504Z,7.53
2022-09-07T05:02:26.251Z,7.70
2022-09-07T05:04:57.331Z,7.83
2022-09-07T05:07:28.286Z,7.90
2022-09-07T05:09:57.324Z,8.30
2022-09-07T05:12:26.069Z,8.57
2022-09-07T05:14:55.958Z,7.70
2022-09-07T05:17:24.614Z,8.37
2022-09-07T05:19:53.438Z,9.20
2022-09-07T05:22:22.409Z,9.60
2022-09-07T05:24:51.024Z,10.10
2022-09-07T05:27:19.616Z,10.43
2022-09-07T05:30:04.574Z,9.00
2022-09-07T05:32:35.778Z,8.70
2022-09-07T05:35:04.374Z,8.73
2022-09-07T05:37:32.949Z,9.10
2022-09-07T05:40:01.461Z,9.17
2022-09-07T05:42:30.399Z,10.57
2022-09-07T05:44:59.315Z,8.57
2022-09-07T05:47:27.895Z,9.20
2022-09-07T05:49:57.848Z,8.80
2022-09-07T05:52:26.512Z,9.70
2022-09-07T05:55:03.217Z,9.77
2022-09-07T05:57:43.597Z,9.37
2022-09-07T06:00:14.594Z,9.80
2022-09-07T06:02:43.139Z,11.87
2022-09-07T06:05:13.158Z,10.20
2022-09-07T06:07:42.173Z,10.30
2022-09-07T06:12:59.573Z,9.90
2022-09-07T06:15:28.269Z,10.40
2022-09-07T06:17:56.842Z,9.80
2022-09-07T06:20:26.963Z,9.43
2022-09-07T06:22:55.633Z,9.90
2022-09-07T06:25:24.258Z,8.00
2022-09-07T06:27:54.064Z,8.23
2022-09-07T06:30:22.989Z,8.70
2022-09-07T06:32:51.636Z,9.37
2022-09-07T06:35:20.189Z,8.90
2022-09-07T06:37:50.142Z,9.00
2022-09-07T06:40:18.923Z,8.43
2022-09-07T06:42:47.472Z,9.37
2022-09-07T06:45:18.066Z,8.27
2022-09-07T06:47:46.595Z,9.30
2022-09-07T06:50:17.636Z,9.60
2022-09-07T06:55:36.139Z,10.03
2022-09-07T06:58:04.701Z,10.10
2022-09-07T07:00:33.403Z,8.93
2022-09-07T07:03:02.118Z,8.80
2022-09-07T07:05:31.762Z,8.70
2022-09-07T07:08:00.742Z,8.53
2022-09-07T07:10:29.387Z,7.60
2022-09-07T07:12:59.326Z,8.50
2022-09-07T07:15:29.741Z,7.13
2022-09-07T07:18:09.519Z,8.10
2022-09-07T07:20:47.824Z,8.63
2022-09-07T07:23:17.229Z,6.93
2022-09-07T07:25:46.234Z,5.30
2022-09-07T07:31:10.554Z,5.17
2022-09-07T07:33:41.536Z,5.30
2022-09-07T07:36:16.014Z,4.43
2022-09-07T07:39:03.602Z,4.83
2022-09-07T07:44:23.436Z,4.23
2022-09-07T07:46:52.716Z,4.63
2022-09-07T07:49:21.732Z,4.53
2022-09-07T07:54:40.602Z,5.10
2022-09-07T07:57:09.341Z,4.67
2022-09-07T07:59:40.025Z,4.20
2022-09-07T08:02:13.487Z,4.57
2022-09-07T08:04:44.616Z,5.50
2022-09-07T08:07:13.852Z,4.10
2022-09-07T08:09:44.085Z,4.33
2022-09-07T08:12:16.657Z,5.03
2022-09-07T08:14:48.455Z,5.10
2022-09-07T08:17:18.871Z,4.90
2022-09-07T08:19:47.402Z,4.30
2022-09-07T08:22:15.738Z,4.33
2022-09-07T08:24:44.167Z,4.37
2022-09-07T08:27:12.493Z,3.83
2022-09-07T08:29:40.912Z,4.60
2022-09-07T08:32:10.602Z,3.70
2022-09-07T08:34:40.785Z,3.70
2022-09-07T08:37:09.106Z,3.43
2022-09-07T08:39:37.685Z,3.70
2022-09-07T08:42:25.533Z,3.60
2022-09-07T08:45:07.884Z,3.80
2022-09-07T08:47:42.798Z,4.60
2022-09-07T08:50:18.275Z,4.60
2022-09-07T08:52:52.042Z,4.43
2022-09-07T08:55:27.896Z,4.50
2022-09-07T08:58:04.255Z,4.50
2022-09-07T09:00:36.055Z,4.90
2022-09-07T09:06:04.511Z,4.17
2022-09-07T09:08:49.507Z,4.43
2022-09-07T09:11:25.661Z,4.17
2022-09-07T09:14:04.107Z,4.60
2022-09-07T09:16:42.843Z,4.10
2022-09-07T09:19:51.325Z,4.10
2022-09-07T09:22:22.826Z,4.10
2022-09-07T09:24:59.115Z,5.70
2022-09-07T09:27:27.561Z,4.40
2022-09-07T09:29:55.931Z,4.10
2022-09-07T09:32:41.987Z,4.03
2022-09-07T09:35:23.529Z,4.40
2022-09-07T09:37:51.945Z,4.10
2022-09-07T09:40:25.540Z,4.03
2022-09-07T09:43:03.024Z,3.87
2022-09-07T09:48:34.526Z,4.27
2022-09-07T09:54:05.945Z,3.53
2022-09-07T09:56:40.397Z,5.50
2022-09-07T10:05:30.489Z,4.20
2022-09-07T10:07:59.059Z,3.33
2022-09-07T10:10:29.721Z,3.67
2022-09-07T10:12:58.503Z,4.50
2022-09-07T10:15:41.319Z,3.77
2022-09-07T10:18:21.275Z,3.80
2022-09-07T10:20:51.181Z,3.20
2022-09-07T10:23:25.359Z,3.27
2022-09-07T10:25:53.732Z,2.73
2022-09-07T10:28:24.880Z,3.27
2022-09-07T10:31:15.384Z,3.30
2022-09-07T10:36:49.961Z,2.80
2022-09-07T10:39:26.125Z,3.00
2022-09-07T10:42:08.655Z,2.90
2022-09-07T10:44:54.279Z,2.53
2022-09-07T10:47:35.163Z,4.63
2022-09-07T10:50:24.952Z,2.93
2022-09-07T10:53:39.141Z,2.67
2022-09-07T10:56:12.935Z,3.40
2022-09-07T10:59:08.989Z,3.13
2022-09-07T11:01:54.349Z,2.70
2022-09-07T11:04:44.329Z,2.70
2022-09-07T11:07:34.041Z,2.90
2022-09-07T11:10:18.169Z,2.90
2022-09-07T11:12:47.429Z,2.40
2022-09-07T11:15:22.427Z,2.10
2022-09-07T11:17:56.692Z,3.00
2022-09-07T11:20:30.958Z,2.83
2022-09-07T11:23:13.000Z,2.57
2022-09-07T11:25:52.172Z,3.20
2022-09-07T11:28:27.404Z,2.87
2022-09-07T11:31:01.499Z,2.77
2022-09-07T11:33:35.605Z,3.20
2022-09-07T11:36:12.193Z,2.60
2022-09-07T11:39:10.846Z,2.40
2022-09-07T11:41:48.434Z,3.20
2022-09-07T11:44:24.827Z,2.33
2022-09-07T11:46:57.926Z,2.40
2022-09-07T11:49:27.097Z,2.20
2022-09-07T11:52:16.103Z,3.80
2022-09-07T11:54:50.322Z,2.23
2022-09-07T11:57:50.488Z,3.10
2022-09-07T12:00:24.799Z,5.33
2022-09-07T12:03:38.121Z,2.50
2022-09-07T12:06:37.133Z,2.90
2022-09-07T12:09:20.312Z,2.70
2022-09-07T12:12:21.674Z,26.73
2022-09-07T12:15:06.934Z,2.97
2022-09-07T12:17:48.531Z,3.50
2022-09-07T12:20:19.450Z,3.20
2022-09-07T12:23:04.476Z,3.80
2022-09-07T12:25:35.194Z,2.20
2022-09-07T12:28:04.030Z,2.43
2022-09-07T12:30:57.837Z,4.00
2022-09-07T12:33:33.018Z,4.93
2022-09-07T12:36:02.175Z,2.70
2022-09-07T12:39:24.834Z,2.73
2022-09-07T12:44:43.980Z,2.30
2022-09-07T12:47:31.144Z,2.60
2022-09-07T12:50:14.925Z,2.37
2022-09-07T12:53:10.077Z,2.63
2022-09-07T12:59:29.500Z,2.40
2022-09-07T13:02:12.442Z,2.60
2022-09-07T13:05:03.176Z,2.97
2022-09-07T13:08:15.069Z,2.00
2022-09-07T13:10:45.034Z,2.63
2022-09-07T13:17:15.968Z,2.97
2022-09-07T13:20:08.349Z,2.77
2022-09-07T13:22:56.280Z,2.27
2022-09-07T13:25:46.897Z,2.43
2022-09-07T13:28:44.296Z,1.97
2022-09-07T13:31:43.146Z,3.80
2022-09-07T13:34:49.844Z,3.83
2022-09-07T13:37:24.125Z,3.27
2022-09-07T13:39:56.374Z,2.80
2022-09-07T13:42:27.453Z,2.70
2022-09-07T13:44:58.236Z,5.33
2022-09-07T13:47:40.116Z,2.77
2022-09-07T13:50:25.078Z,2.60
2022-09-07T13:53:26.146Z,3.50
2022-09-07T13:56:04.299Z,3.60
2022-09-07T13:58:37.721Z,3.60
2022-09-07T14:01:17.925Z,3.30
2022-09-07T14:03:52.014Z,2.47
2022-09-07T14:06:35.033Z,2.77
2022-09-07T14:09:12.582Z,2.23
2022-09-07T14:11:44.015Z,2.93
2022-09-07T14:14:21.950Z,2.10
2022-09-07T14:16:55.525Z,2.30
2022-09-07T14:19:27.575Z,3.03
2022-09-07T14:22:01.888Z,2.33
2022-09-07T14:24:37.738Z,2.23
2022-09-07T14:27:17.447Z,2.87
2022-09-07T14:29:45.821Z,2.40
2022-09-07T14:32:19.588Z,1.90
2022-09-07T14:34:48.593Z,2.10
2022-09-07T14:37:19.219Z,1.90
2022-09-07T14:39:52.708Z,2.67
2022-09-07T14:42:24.612Z,3.97
2022-09-07T14:45:21.017Z,2.77
2022-09-07T14:47:52.531Z,1.70
2022-09-07T14:50:24.844Z,1.90
2022-09-07T14:55:48.089Z,1.80
2022-09-07T14:58:25.302Z,1.83
2022-09-07T15:03:57.076Z,2.20
2022-09-07T15:09:33.389Z,2.83
2022-09-07T15:12:27.341Z,1.90
2022-09-07T15:15:13.453Z,2.30
2022-09-07T15:17:43.368Z,2.23
2022-09-07T15:20:36.427Z,2.20
2022-09-07T15:23:06.422Z,2.50
2022-09-07T15:25:35.831Z,4.20
2022-09-07T15:28:06.595Z,2.40
2022-09-07T15:30:35.311Z,2.33
2022-09-07T15:33:03.876Z,2.33
2022-09-07T15:35:32.271Z,3.90
2022-09-07T15:38:01.802Z,2.37
2022-09-07T15:40:51.314Z,2.47
2022-09-07T15:43:29.288Z,2.40
2022-09-07T15:45:57.776Z,2.57
2022-09-07T15:48:26.341Z,2.77
2022-09-07T15:51:04.793Z,2.57
2022-09-07T15:56:24.124Z,1.90
2022-09-07T15:58:57.882Z,2.60
2022-09-07T16:04:15.899Z,2.53
2022-09-07T16:06:44.599Z,2.50
2022-09-07T16:09:12.904Z,2.10
2022-09-07T16:11:41.243Z,2.57
2022-09-07T16:14:12.364Z,2.73
2022-09-07T16:19:29.113Z,3.43
2022-09-07T16:21:57.825Z,2.50
2022-09-07T16:24:27.849Z,2.93
2022-09-07T16:26:56.480Z,2.27
2022-09-07T16:29:26.298Z,2.53
2022-09-07T16:34:43.471Z,3.10
2022-09-07T16:37:11.873Z,2.90
2022-09-07T16:39:40.226Z,2.20
2022-09-07T16:42:09.151Z,2.40
2022-09-07T16:44:39.056Z,2.90
2022-09-07T16:47:08.117Z,3.10
2022-09-07T16:49:36.446Z,2.40
2022-09-07T16:52:10.580Z,2.70
2022-09-07T16:54:39.205Z,3.03
2022-09-07T16:57:07.817Z,3.47
2022-09-07T16:59:36.212Z,2.27
2022-09-07T17:02:05.947Z,3.00
2022-09-07T17:04:34.350Z,2.67
2022-09-07T17:07:02.699Z,2.90
2022-09-07T17:09:31.062Z,2.27
2022-09-07T17:11:59.399Z,3.00
2022-09-07T17:14:28.294Z,2.10
2022-09-07T17:16:56.711Z,1.70
2022-09-07T17:19:30.036Z,2.60
2022-09-07T17:21:59.918Z,2.87
2022-09-07T17:24:32.239Z,2.43
2022-09-07T17:27:01.207Z,3.10
2022-09-07T17:29:30.792Z,2.67
2022-09-07T17:34:51.279Z,2.57
2022-09-07T17:37:19.907Z,2.93
2022-09-07T17:39:48.353Z,3.53
2022-09-07T17:42:17.040Z,3.60
2022-09-07T17:44:45.410Z,3.80
2022-09-07T17:47:13.974Z,3.60
2022-09-07T17:49:42.311Z,3.30
2022-09-07T17:52:12.000Z,2.60
2022-09-07T17:54:40.614Z,3.63
2022-09-07T17:57:08.951Z,2.67
2022-09-07T18:02:25.655Z,3.03
2022-09-07T18:04:54.079Z,3.70
2022-09-07T18:07:23.831Z,3.30
2022-09-07T18:09:52.570Z,3.17
2022-09-07T18:12:20.969Z,2.97
2022-09-07T18:14:49.278Z,2.90
2022-09-07T18:17:17.637Z,3.23
2022-09-07T18:19:45.923Z,2.83
2022-09-07T18:22:15.307Z,2.60
2022-09-07T18:24:45.351Z,4.53
2022-09-07T18:27:13.756Z,2.50
2022-09-07T18:29:43.410Z,2.73
2022-09-07T18:32:11.710Z,2.50
2022-09-07T18:34:41.449Z,2.83
2022-09-07T18:37:12.120Z,3.27
2022-09-07T18:39:41.143Z,3.07
2022-09-07T18:42:11.313Z,3.33
2022-09-07T18:47:29.396Z,3.43
2022-09-07T18:49:58.671Z,2.63
2022-09-07T18:55:16.352Z,3.60
2022-09-07T18:57:46.529Z,3.33
